sensor_id;sensor_type;location;lat;lon;timestamp;temperature;humidity
23283;DHT22;11810;51.178;3.878;2022-12-20T00:00:47;11.10;99.90
23283;DHT22;11810;51.178;3.878;2022-12-20T00:03:13;11.10;99.90
23283;DHT22;11810;51.178;3.878;2022-12-20T00:05:39;11.00;99.90
23283;DHT22;11810;51.178;3.878;2022-12-20T00:08:07;10.90;99.90
23283;DHT22;11810;51.178;3.878;2022-12-20T00:10:37;10.80;99.90
23283;DHT22;11810;51.178;3.878;2022-12-20T00:13:04;10.70;99.90
23283;DHT22;11810;51.178;3.878;2022-12-20T00:15:30;10.70;99.90
23283;DHT22;11810;51.178;3.878;2022-12-20T00:17:57;10.70;99.90
23283;DHT22;11810;51.178;3.878;2022-12-20T00:20:23;10.80;99.90
23283;DHT22;11810;51.178;3.878;2022-12-20T00:22:49;10.70;99.90
23283;DHT22;11810;51.178;3.878;2022-12-20T00:25:15;10.70;99.90
23283;DHT22;11810;51.178;3.878;2022-12-20T00:27:41;10.70;99.90
23283;DHT22;11810;51.178;3.878;2022-12-20T00:30:07;10.60;99.90
23283;DHT22;11810;51.178;3.878;2022-12-20T00:32:33;10.70;99.90
23283;DHT22;11810;51.178;3.878;2022-12-20T00:34:59;10.70;99.90
23283;DHT22;11810;51.178;3.878;2022-12-20T00:37:25;10.60;99.90
23283;DHT22;11810;51.178;3.878;2022-12-20T00:39:51;10.50;99.90
23283;DHT22;11810;51.178;3.878;2022-12-20T00:42:17;10.50;99.90
23283;DHT22;11810;51.178;3.878;2022-12-20T00:44:43;10.50;99.90
23283;DHT22;11810;51.178;3.878;2022-12-20T00:47:09;10.50;99.90
23283;DHT22;11810;51.178;3.878;2022-12-20T00:49:35;10.50;99.90
23283;DHT22;11810;51.178;3.878;2022-12-20T00:52:00;10.50;99.90
23283;DHT22;11810;51.178;3.878;2022-12-20T00:54:26;10.50;99.90
23283;DHT22;11810;51.178;3.878;2022-12-20T00:56:52;10.50;99.90
23283;DHT22;11810;51.178;3.878;2022-12-20T00:59:19;10.40;99.90
23283;DHT22;11810;51.178;3.878;2022-12-20T01:01:46;10.40;99.90
23283;DHT22;11810;51.178;3.878;2022-12-20T01:04:12;10.40;99.90
23283;DHT22;11810;51.178;3.878;2022-12-20T01:06:38;10.40;99.90
23283;DHT22;11810;51.178;3.878;2022-12-20T01:09:04;10.40;99.90
23283;DHT22;11810;51.178;3.878;2022-12-20T01:11:35;10.30;99.90
23283;DHT22;11810;51.178;3.878;2022-12-20T01:14:16;10.20;99.90
23283;DHT22;11810;51.178;3.878;2022-12-20T01:16:44;10.30;99.90
23283;DHT22;11810;51.178;3.878;2022-12-20T01:19:16;10.30;99.90
23283;DHT22;11810;51.178;3.878;2022-12-20T01:21:43;10.20;99.90
23283;DHT22;11810;51.178;3.878;2022-12-20T01:24:13;10.20;99.90
23283;DHT22;11810;51.178;3.878;2022-12-20T01:26:39;10.30;99.90
23283;DHT22;11810;51.178;3.878;2022-12-20T01:29:05;10.30;99.90
23283;DHT22;11810;51.178;3.878;2022-12-20T01:31:31;10.30;99.90
23283;DHT22;11810;51.178;3.878;2022-12-20T01:33:57;10.30;99.90
23283;DHT22;11810;51.178;3.878;2022-12-20T01:36:26;10.30;99.90
23283;DHT22;11810;51.178;3.878;2022-12-20T01:38:57;10.30;99.90
23283;DHT22;11810;51.178;3.878;2022-12-20T01:41:23;10.30;99.90
23283;DHT22;11810;51.178;3.878;2022-12-20T01:46:51;10.40;99.90
23283;DHT22;11810;51.178;3.878;2022-12-20T01:49:27;10.40;99.90
23283;DHT22;11810;51.178;3.878;2022-12-20T01:54:45;10.60;99.90
23283;DHT22;11810;51.178;3.878;2022-12-20T01:57:21;10.50;99.90
23283;DHT22;11810;51.178;3.878;2022-12-20T01:59:50;10.40;99.90
23283;DHT22;11810;51.178;3.878;2022-12-20T02:02:17;10.50;99.90
23283;DHT22;11810;51.178;3.878;2022-12-20T02:04:43;10.60;99.90
23283;DHT22;11810;51.178;3.878;2022-12-20T02:07:11;10.70;99.90
23283;DHT22;11810;51.178;3.878;2022-12-20T02:09:39;10.60;99.90
23283;DHT22;11810;51.178;3.878;2022-12-20T02:12:16;10.60;99.90
23283;DHT22;11810;51.178;3.878;2022-12-20T02:30:55;10.60;99.90
23283;DHT22;11810;51.178;3.878;2022-12-20T02:33:24;10.70;99.90
23283;DHT22;11810;51.178;3.878;2022-12-20T02:35:51;10.60;99.90
23283;DHT22;11810;51.178;3.878;2022-12-20T02:38:33;10.60;99.90
23283;DHT22;11810;51.178;3.878;2022-12-20T02:43:55;10.70;99.90
23283;DHT22;11810;51.178;3.878;2022-12-20T02:46:41;10.70;99.90
23283;DHT22;11810;51.178;3.878;2022-12-20T02:49:16;10.60;99.90
23283;DHT22;11810;51.178;3.878;2022-12-20T02:51:46;10.60;99.90
23283;DHT22;11810;51.178;3.878;2022-12-20T02:54:15;10.70;99.90
23283;DHT22;11810;51.178;3.878;2022-12-20T02:56:46;10.60;99.90
23283;DHT22;11810;51.178;3.878;2022-12-20T02:59:41;10.60;99.90
23283;DHT22;11810;51.178;3.878;2022-12-20T03:02:10;10.70;99.90
23283;DHT22;11810;51.178;3.878;2022-12-20T03:04:38;10.60;99.90
23283;DHT22;11810;51.178;3.878;2022-12-20T03:07:07;10.50;99.90
23283;DHT22;11810;51.178;3.878;2022-12-20T03:09:36;10.70;99.90
23283;DHT22;11810;51.178;3.878;2022-12-20T03:12:03;10.80;99.90
23283;DHT22;11810;51.178;3.878;2022-12-20T03:14:30;10.80;99.90
23283;DHT22;11810;51.178;3.878;2022-12-20T03:16:55;10.90;99.90
23283;DHT22;11810;51.178;3.878;2022-12-20T03:19:22;11.00;99.90
23283;DHT22;11810;51.178;3.878;2022-12-20T03:21:47;11.00;99.90
23283;DHT22;11810;51.178;3.878;2022-12-20T03:24:14;10.90;99.90
23283;DHT22;11810;51.178;3.878;2022-12-20T03:26:40;10.90;99.90
23283;DHT22;11810;51.178;3.878;2022-12-20T03:29:06;11.00;99.90
23283;DHT22;11810;51.178;3.878;2022-12-20T03:31:33;11.00;99.90
23283;DHT22;11810;51.178;3.878;2022-12-20T03:33:59;10.90;99.90
23283;DHT22;11810;51.178;3.878;2022-12-20T03:36:25;10.90;99.90
23283;DHT22;11810;51.178;3.878;2022-12-20T03:38:51;10.90;99.90
23283;DHT22;11810;51.178;3.878;2022-12-20T03:41:18;10.80;99.90
23283;DHT22;11810;51.178;3.878;2022-12-20T03:43:46;10.80;99.90
23283;DHT22;11810;51.178;3.878;2022-12-20T03:46:12;10.90;99.90
23283;DHT22;11810;51.178;3.878;2022-12-20T03:48:38;10.90;99.90
23283;DHT22;11810;51.178;3.878;2022-12-20T03:51:04;11.00;99.90
23283;DHT22;11810;51.178;3.878;2022-12-20T03:53:30;11.00;99.90
23283;DHT22;11810;51.178;3.878;2022-12-20T03:55:57;11.00;99.90
23283;DHT22;11810;51.178;3.878;2022-12-20T03:58:23;11.00;99.90
23283;DHT22;11810;51.178;3.878;2022-12-20T04:00:49;11.00;99.90
23283;DHT22;11810;51.178;3.878;2022-12-20T04:03:15;10.90;99.90
23283;DHT22;11810;51.178;3.878;2022-12-20T04:05:41;11.00;99.90
23283;DHT22;11810;51.178;3.878;2022-12-20T04:08:07;10.90;99.90
23283;DHT22;11810;51.178;3.878;2022-12-20T04:10:33;11.00;99.90
23283;DHT22;11810;51.178;3.878;2022-12-20T04:13:19;11.00;99.90
23283;DHT22;11810;51.178;3.878;2022-12-20T04:15:44;11.00;99.90
23283;DHT22;11810;51.178;3.878;2022-12-20T04:18:10;10.90;99.90
23283;DHT22;11810;51.178;3.878;2022-12-20T04:20:36;10.90;99.90
23283;DHT22;11810;51.178;3.878;2022-12-20T04:23:02;11.00;99.90
23283;DHT22;11810;51.178;3.878;2022-12-20T04:25:28;11.00;99.90
23283;DHT22;11810;51.178;3.878;2022-12-20T04:27:54;11.10;99.90
23283;DHT22;11810;51.178;3.878;2022-12-20T04:30:20;11.10;99.90
23283;DHT22;11810;51.178;3.878;2022-12-20T04:32:46;11.00;99.90
23283;DHT22;11810;51.178;3.878;2022-12-20T04:35:11;11.10;99.90
23283;DHT22;11810;51.178;3.878;2022-12-20T04:37:37;11.10;99.90
23283;DHT22;11810;51.178;3.878;2022-12-20T04:40:04;11.10;99.90
23283;DHT22;11810;51.178;3.878;2022-12-20T04:42:30;11.10;99.90
23283;DHT22;11810;51.178;3.878;2022-12-20T04:44:57;11.00;99.90
23283;DHT22;11810;51.178;3.878;2022-12-20T04:47:22;11.10;99.90
23283;DHT22;11810;51.178;3.878;2022-12-20T04:49:48;11.00;99.90
23283;DHT22;11810;51.178;3.878;2022-12-20T04:52:14;10.80;99.90
23283;DHT22;11810;51.178;3.878;2022-12-20T04:54:58;10.80;99.90
23283;DHT22;11810;51.178;3.878;2022-12-20T04:57:24;10.80;99.90
23283;DHT22;11810;51.178;3.878;2022-12-20T04:59:50;10.80;99.90
23283;DHT22;11810;51.178;3.878;2022-12-20T05:02:16;10.70;99.90
23283;DHT22;11810;51.178;3.878;2022-12-20T05:04:42;10.60;99.90
23283;DHT22;11810;51.178;3.878;2022-12-20T05:07:07;10.60;99.90
23283;DHT22;11810;51.178;3.878;2022-12-20T05:09:33;10.50;99.90
23283;DHT22;11810;51.178;3.878;2022-12-20T05:11:59;10.40;99.90
23283;DHT22;11810;51.178;3.878;2022-12-20T05:14:25;10.50;99.90
23283;DHT22;11810;51.178;3.878;2022-12-20T05:16:51;10.50;99.90
23283;DHT22;11810;51.178;3.878;2022-12-20T05:19:17;10.50;99.90
23283;DHT22;11810;51.178;3.878;2022-12-20T05:21:43;10.60;99.90
23283;DHT22;11810;51.178;3.878;2022-12-20T05:24:27;10.70;99.90
23283;DHT22;11810;51.178;3.878;2022-12-20T05:27:11;10.70;99.90
23283;DHT22;11810;51.178;3.878;2022-12-20T05:29:37;10.70;99.90
23283;DHT22;11810;51.178;3.878;2022-12-20T05:32:03;10.70;99.90
23283;DHT22;11810;51.178;3.878;2022-12-20T05:34:29;10.70;99.90
23283;DHT22;11810;51.178;3.878;2022-12-20T05:36:55;10.80;99.90
23283;DHT22;11810;51.178;3.878;2022-12-20T05:39:21;10.70;99.90
23283;DHT22;11810;51.178;3.878;2022-12-20T05:41:47;10.70;99.90
23283;DHT22;11810;51.178;3.878;2022-12-20T05:44:13;10.70;99.90
23283;DHT22;11810;51.178;3.878;2022-12-20T05:46:39;10.80;99.90
23283;DHT22;11810;51.178;3.878;2022-12-20T05:49:06;10.70;99.90
23283;DHT22;11810;51.178;3.878;2022-12-20T05:51:31;10.70;99.90
23283;DHT22;11810;51.178;3.878;2022-12-20T05:53:57;10.80;99.90
23283;DHT22;11810;51.178;3.878;2022-12-20T05:56:23;10.80;99.90
23283;DHT22;11810;51.178;3.878;2022-12-20T05:58:49;10.90;99.90
23283;DHT22;11810;51.178;3.878;2022-12-20T06:01:14;10.80;99.90
23283;DHT22;11810;51.178;3.878;2022-12-20T06:03:40;10.80;99.90
23283;DHT22;11810;51.178;3.878;2022-12-20T06:06:06;10.90;99.90
23283;DHT22;11810;51.178;3.878;2022-12-20T06:08:32;11.00;99.90
23283;DHT22;11810;51.178;3.878;2022-12-20T06:10:58;11.00;99.90
23283;DHT22;11810;51.178;3.878;2022-12-20T06:13:23;11.00;99.90
23283;DHT22;11810;51.178;3.878;2022-12-20T06:15:49;11.00;99.90
23283;DHT22;11810;51.178;3.878;2022-12-20T06:18:15;11.00;99.90
23283;DHT22;11810;51.178;3.878;2022-12-20T06:20:41;11.10;99.90
23283;DHT22;11810;51.178;3.878;2022-12-20T06:23:07;11.00;99.90
23283;DHT22;11810;51.178;3.878;2022-12-20T06:25:34;11.10;99.90
23283;DHT22;11810;51.178;3.878;2022-12-20T06:28:00;11.10;99.90
23283;DHT22;11810;51.178;3.878;2022-12-20T06:30:26;11.10;99.90
23283;DHT22;11810;51.178;3.878;2022-12-20T06:32:51;11.20;99.90
23283;DHT22;11810;51.178;3.878;2022-12-20T06:35:17;11.20;99.90
23283;DHT22;11810;51.178;3.878;2022-12-20T06:37:43;11.10;99.90
23283;DHT22;11810;51.178;3.878;2022-12-20T06:40:11;11.20;99.90
23283;DHT22;11810;51.178;3.878;2022-12-20T06:42:37;11.20;99.90
23283;DHT22;11810;51.178;3.878;2022-12-20T06:45:04;11.30;99.90
23283;DHT22;11810;51.178;3.878;2022-12-20T06:47:30;11.10;99.90
23283;DHT22;11810;51.178;3.878;2022-12-20T06:49:56;11.10;99.90
23283;DHT22;11810;51.178;3.878;2022-12-20T06:52:23;11.20;99.90
23283;DHT22;11810;51.178;3.878;2022-12-20T06:54:49;11.20;99.90
23283;DHT22;11810;51.178;3.878;2022-12-20T06:57:15;11.20;99.90
23283;DHT22;11810;51.178;3.878;2022-12-20T06:59:41;11.10;99.90
23283;DHT22;11810;51.178;3.878;2022-12-20T07:02:12;11.10;99.90
23283;DHT22;11810;51.178;3.878;2022-12-20T07:04:38;11.00;99.90
23283;DHT22;11810;51.178;3.878;2022-12-20T07:07:04;11.10;99.90
23283;DHT22;11810;51.178;3.878;2022-12-20T07:09:30;11.00;99.90
23283;DHT22;11810;51.178;3.878;2022-12-20T07:11:56;11.00;99.90
23283;DHT22;11810;51.178;3.878;2022-12-20T07:14:22;11.00;99.90
23283;DHT22;11810;51.178;3.878;2022-12-20T07:16:48;10.90;99.90
23283;DHT22;11810;51.178;3.878;2022-12-20T07:19:15;10.90;99.90
23283;DHT22;11810;51.178;3.878;2022-12-20T07:21:42;10.90;99.90
23283;DHT22;11810;51.178;3.878;2022-12-20T07:24:08;11.00;99.90
23283;DHT22;11810;51.178;3.878;2022-12-20T07:26:35;11.00;99.90
23283;DHT22;11810;51.178;3.878;2022-12-20T07:29:01;11.00;99.90
23283;DHT22;11810;51.178;3.878;2022-12-20T07:31:27;11.10;99.90
23283;DHT22;11810;51.178;3.878;2022-12-20T07:33:53;11.10;99.90
23283;DHT22;11810;51.178;3.878;2022-12-20T07:36:19;11.10;99.90
23283;DHT22;11810;51.178;3.878;2022-12-20T07:38:45;11.10;99.90
23283;DHT22;11810;51.178;3.878;2022-12-20T07:41:16;11.00;99.90
23283;DHT22;11810;51.178;3.878;2022-12-20T07:43:45;11.00;99.90
23283;DHT22;11810;51.178;3.878;2022-12-20T07:46:15;11.00;99.90
23283;DHT22;11810;51.178;3.878;2022-12-20T07:48:42;10.90;99.90
23283;DHT22;11810;51.178;3.878;2022-12-20T07:51:18;10.80;99.90
23283;DHT22;11810;51.178;3.878;2022-12-20T07:53:49;10.90;99.90
23283;DHT22;11810;51.178;3.878;2022-12-20T07:56:17;11.00;99.90
23283;DHT22;11810;51.178;3.878;2022-12-20T07:58:44;11.00;99.90
23283;DHT22;11810;51.178;3.878;2022-12-20T08:01:10;10.90;99.90
23283;DHT22;11810;51.178;3.878;2022-12-20T08:03:43;10.90;99.90
23283;DHT22;11810;51.178;3.878;2022-12-20T08:06:10;10.90;99.90
23283;DHT22;11810;51.178;3.878;2022-12-20T08:08:40;10.90;99.90
23283;DHT22;11810;51.178;3.878;2022-12-20T08:11:08;10.90;99.90
23283;DHT22;11810;51.178;3.878;2022-12-20T08:13:35;10.90;99.90
23283;DHT22;11810;51.178;3.878;2022-12-20T08:27:36;11.10;99.90
23283;DHT22;11810;51.178;3.878;2022-12-20T08:30:02;11.10;99.90
23283;DHT22;11810;51.178;3.878;2022-12-20T08:32:29;11.00;99.90
23283;DHT22;11810;51.178;3.878;2022-12-20T08:34:55;11.10;99.90
23283;DHT22;11810;51.178;3.878;2022-12-20T08:37:21;11.10;99.90
23283;DHT22;11810;51.178;3.878;2022-12-20T08:39:47;11.10;99.90
23283;DHT22;11810;51.178;3.878;2022-12-20T08:42:13;11.20;99.90
23283;DHT22;11810;51.178;3.878;2022-12-20T08:44:39;11.20;99.90
23283;DHT22;11810;51.178;3.878;2022-12-20T08:47:05;11.30;99.90
23283;DHT22;11810;51.178;3.878;2022-12-20T08:49:31;11.20;99.90
23283;DHT22;11810;51.178;3.878;2022-12-20T08:51:57;11.10;99.90
23283;DHT22;11810;51.178;3.878;2022-12-20T08:54:23;11.10;99.90
23283;DHT22;11810;51.178;3.878;2022-12-20T08:56:49;11.10;99.90
23283;DHT22;11810;51.178;3.878;2022-12-20T08:59:15;11.30;99.90
23283;DHT22;11810;51.178;3.878;2022-12-20T09:01:40;11.40;99.90
23283;DHT22;11810;51.178;3.878;2022-12-20T09:04:09;11.30;99.90
23283;DHT22;11810;51.178;3.878;2022-12-20T09:06:36;11.40;99.90
23283;DHT22;11810;51.178;3.878;2022-12-20T09:09:03;11.30;99.90
23283;DHT22;11810;51.178;3.878;2022-12-20T09:11:30;11.20;99.90
23283;DHT22;11810;51.178;3.878;2022-12-20T09:13:57;11.20;99.90
23283;DHT22;11810;51.178;3.878;2022-12-20T09:16:28;11.30;99.90
23283;DHT22;11810;51.178;3.878;2022-12-20T09:18:56;11.20;99.90
23283;DHT22;11810;51.178;3.878;2022-12-20T09:21:23;11.10;99.90
23283;DHT22;11810;51.178;3.878;2022-12-20T09:23:53;11.20;99.90
23283;DHT22;11810;51.178;3.878;2022-12-20T09:26:21;11.20;99.90
23283;DHT22;11810;51.178;3.878;2022-12-20T09:28:47;11.30;99.90
23283;DHT22;11810;51.178;3.878;2022-12-20T09:31:18;11.30;99.90
23283;DHT22;11810;51.178;3.878;2022-12-20T09:33:45;11.30;99.90
23283;DHT22;11810;51.178;3.878;2022-12-20T09:36:14;11.40;99.90
23283;DHT22;11810;51.178;3.878;2022-12-20T09:38:40;11.50;99.90
23283;DHT22;11810;51.178;3.878;2022-12-20T09:41:08;11.50;99.90
23283;DHT22;11810;51.178;3.878;2022-12-20T09:43:40;11.50;99.90
23283;DHT22;11810;51.178;3.878;2022-12-20T09:46:06;11.60;99.90
23283;DHT22;11810;51.178;3.878;2022-12-20T09:48:38;11.40;99.90
23283;DHT22;11810;51.178;3.878;2022-12-20T09:59:59;11.40;99.90
23283;DHT22;11810;51.178;3.878;2022-12-20T10:02:25;11.40;99.90
23283;DHT22;11810;51.178;3.878;2022-12-20T10:04:54;11.40;99.90
23283;DHT22;11810;51.178;3.878;2022-12-20T10:07:44;11.40;99.90
23283;DHT22;11810;51.178;3.878;2022-12-20T10:10:29;11.40;99.90
23283;DHT22;11810;51.178;3.878;2022-12-20T10:16:30;11.40;99.90
23283;DHT22;11810;51.178;3.878;2022-12-20T10:18:53;11.50;99.90
23283;DHT22;11810;51.178;3.878;2022-12-20T10:24:11;11.40;99.90
23283;DHT22;11810;51.178;3.878;2022-12-20T10:26:40;11.40;99.90
23283;DHT22;11810;51.178;3.878;2022-12-20T10:29:06;11.40;99.90
23283;DHT22;11810;51.178;3.878;2022-12-20T10:31:33;11.50;99.90
23283;DHT22;11810;51.178;3.878;2022-12-20T10:34:00;11.60;99.90
23283;DHT22;11810;51.178;3.878;2022-12-20T10:36:32;11.70;99.90
23283;DHT22;11810;51.178;3.878;2022-12-20T10:39:01;11.70;99.90
23283;DHT22;11810;51.178;3.878;2022-12-20T10:41:44;11.70;99.90
23283;DHT22;11810;51.178;3.878;2022-12-20T10:44:27;11.70;99.90
23283;DHT22;11810;51.178;3.878;2022-12-20T10:46:56;11.60;99.90
23283;DHT22;11810;51.178;3.878;2022-12-20T10:52:12;11.50;99.90
23283;DHT22;11810;51.178;3.878;2022-12-20T10:54:45;11.50;99.90
23283;DHT22;11810;51.178;3.878;2022-12-20T10:59:39;11.70;99.90
23283;DHT22;11810;51.178;3.878;2022-12-20T11:02:39;11.70;99.90
23283;DHT22;11810;51.178;3.878;2022-12-20T11:07:35;11.70;99.90
23283;DHT22;11810;51.178;3.878;2022-12-20T11:12:57;11.70;99.90
23283;DHT22;11810;51.178;3.878;2022-12-20T11:15:29;11.60;99.90
23283;DHT22;11810;51.178;3.878;2022-12-20T11:18:00;11.60;99.90
23283;DHT22;11810;51.178;3.878;2022-12-20T11:25:53;11.60;99.90
23283;DHT22;11810;51.178;3.878;2022-12-20T11:36:17;11.70;99.90
23283;DHT22;11810;51.178;3.878;2022-12-20T11:39:04;11.60;99.90
23283;DHT22;11810;51.178;3.878;2022-12-20T11:41:46;11.70;99.90
23283;DHT22;11810;51.178;3.878;2022-12-20T11:47:30;11.70;99.90
23283;DHT22;11810;51.178;3.878;2022-12-20T11:55:30;11.80;99.90
23283;DHT22;11810;51.178;3.878;2022-12-20T11:58:25;11.80;99.90
23283;DHT22;11810;51.178;3.878;2022-12-20T12:01:03;11.70;99.90
23283;DHT22;11810;51.178;3.878;2022-12-20T12:03:40;11.70;99.90
23283;DHT22;11810;51.178;3.878;2022-12-20T12:06:17;11.70;99.90
23283;DHT22;11810;51.178;3.878;2022-12-20T12:09:14;11.70;99.90
23283;DHT22;11810;51.178;3.878;2022-12-20T12:12:18;11.70;99.90
23283;DHT22;11810;51.178;3.878;2022-12-20T12:19:52;11.70;99.90
23283;DHT22;11810;51.178;3.878;2022-12-20T12:22:27;11.60;99.90
23283;DHT22;11810;51.178;3.878;2022-12-20T12:24:57;11.70;99.90
23283;DHT22;11810;51.178;3.878;2022-12-20T12:27:27;11.70;99.90
23283;DHT22;11810;51.178;3.878;2022-12-20T12:29:54;11.60;99.90
23283;DHT22;11810;51.178;3.878;2022-12-20T12:33:14;11.60;99.90
23283;DHT22;11810;51.178;3.878;2022-12-20T12:43:50;11.70;99.90
23283;DHT22;11810;51.178;3.878;2022-12-20T12:46:18;11.60;99.90
23283;DHT22;11810;51.178;3.878;2022-12-20T12:51:32;11.50;99.90
23283;DHT22;11810;51.178;3.878;2022-12-20T12:54:04;11.50;99.90
23283;DHT22;11810;51.178;3.878;2022-12-20T12:56:40;11.50;99.90
23283;DHT22;11810;51.178;3.878;2022-12-20T13:04:27;11.50;99.90
23283;DHT22;11810;51.178;3.878;2022-12-20T13:06:59;11.50;99.90
23283;DHT22;11810;51.178;3.878;2022-12-20T13:11:56;11.50;99.90
23283;DHT22;11810;51.178;3.878;2022-12-20T13:38:04;11.50;99.90
23283;DHT22;11810;51.178;3.878;2022-12-20T13:40:55;11.40;99.90
23283;DHT22;11810;51.178;3.878;2022-12-20T13:45:56;11.30;99.90
23283;DHT22;11810;51.178;3.878;2022-12-20T13:48:58;11.30;99.90
23283;DHT22;11810;51.178;3.878;2022-12-20T13:51:28;11.20;99.90
23283;DHT22;11810;51.178;3.878;2022-12-20T13:54:05;11.20;99.90
23283;DHT22;11810;51.178;3.878;2022-12-20T13:59:05;11.40;99.90
23283;DHT22;11810;51.178;3.878;2022-12-20T14:01:32;11.30;99.90
23283;DHT22;11810;51.178;3.878;2022-12-20T14:04:05;11.20;99.90
23283;DHT22;11810;51.178;3.878;2022-12-20T14:06:32;11.30;99.90
23283;DHT22;11810;51.178;3.878;2022-12-20T14:08:58;11.20;99.90
23283;DHT22;11810;51.178;3.878;2022-12-20T14:11:26;11.30;99.90
23283;DHT22;11810;51.178;3.878;2022-12-20T14:13:58;11.40;99.90
23283;DHT22;11810;51.178;3.878;2022-12-20T14:16:27;11.30;99.90
23283;DHT22;11810;51.178;3.878;2022-12-20T14:21:23;11.20;99.90
23283;DHT22;11810;51.178;3.878;2022-12-20T14:23:52;11.30;99.90
23283;DHT22;11810;51.178;3.878;2022-12-20T14:26:28;11.30;99.90
23283;DHT22;11810;51.178;3.878;2022-12-20T14:28:59;11.30;99.90
23283;DHT22;11810;51.178;3.878;2022-12-20T14:31:35;11.30;99.90
23283;DHT22;11810;51.178;3.878;2022-12-20T14:36:42;11.40;99.90
23283;DHT22;11810;51.178;3.878;2022-12-20T14:42:01;11.30;99.90
23283;DHT22;11810;51.178;3.878;2022-12-20T14:44:29;11.30;99.90
23283;DHT22;11810;51.178;3.878;2022-12-20T14:47:00;11.40;99.90
23283;DHT22;11810;51.178;3.878;2022-12-20T14:49:48;11.30;99.90
23283;DHT22;11810;51.178;3.878;2022-12-20T14:52:34;11.30;99.90
23283;DHT22;11810;51.178;3.878;2022-12-20T15:08:22;11.30;99.90
23283;DHT22;11810;51.178;3.878;2022-12-20T15:10:53;11.30;99.90
23283;DHT22;11810;51.178;3.878;2022-12-20T15:13:37;11.30;99.90
23283;DHT22;11810;51.178;3.878;2022-12-20T15:18:39;11.20;99.90
23283;DHT22;11810;51.178;3.878;2022-12-20T15:21:12;11.10;99.90
23283;DHT22;11810;51.178;3.878;2022-12-20T15:23:47;11.20;99.90
23283;DHT22;11810;51.178;3.878;2022-12-20T15:26:18;11.20;99.90
23283;DHT22;11810;51.178;3.878;2022-12-20T15:28:45;11.20;99.90
23283;DHT22;11810;51.178;3.878;2022-12-20T15:31:16;11.20;99.90
23283;DHT22;11810;51.178;3.878;2022-12-20T15:33:43;11.10;99.90
23283;DHT22;11810;51.178;3.878;2022-12-20T15:36:28;11.00;99.90
23283;DHT22;11810;51.178;3.878;2022-12-20T15:38:56;11.10;99.90
23283;DHT22;11810;51.178;3.878;2022-12-20T15:41:30;10.90;99.90
23283;DHT22;11810;51.178;3.878;2022-12-20T15:44:04;11.10;99.90
23283;DHT22;11810;51.178;3.878;2022-12-20T15:46:30;11.10;99.90
23283;DHT22;11810;51.178;3.878;2022-12-20T15:48:57;11.10;99.90
23283;DHT22;11810;51.178;3.878;2022-12-20T15:51:27;11.10;99.90
23283;DHT22;11810;51.178;3.878;2022-12-20T15:53:53;11.10;99.90
23283;DHT22;11810;51.178;3.878;2022-12-20T15:56:22;11.20;99.90
23283;DHT22;11810;51.178;3.878;2022-12-20T15:58:48;11.30;99.90
23283;DHT22;11810;51.178;3.878;2022-12-20T16:01:33;11.30;99.90
23283;DHT22;11810;51.178;3.878;2022-12-20T16:04:01;11.30;99.90
23283;DHT22;11810;51.178;3.878;2022-12-20T16:06:26;11.30;99.90
23283;DHT22;11810;51.178;3.878;2022-12-20T16:08:53;11.20;99.90
23283;DHT22;11810;51.178;3.878;2022-12-20T16:11:25;11.20;99.90
23283;DHT22;11810;51.178;3.878;2022-12-20T16:13:56;11.30;99.90
23283;DHT22;11810;51.178;3.878;2022-12-20T16:16:35;11.20;99.90
23283;DHT22;11810;51.178;3.878;2022-12-20T16:19:01;11.20;99.90
23283;DHT22;11810;51.178;3.878;2022-12-20T16:21:40;11.10;99.90
23283;DHT22;11810;51.178;3.878;2022-12-20T16:24:13;11.00;99.90
23283;DHT22;11810;51.178;3.878;2022-12-20T16:26:39;11.10;99.90
23283;DHT22;11810;51.178;3.878;2022-12-20T16:29:05;11.00;99.90
23283;DHT22;11810;51.178;3.878;2022-12-20T16:31:37;11.10;99.90
23283;DHT22;11810;51.178;3.878;2022-12-20T16:34:12;11.10;99.90
23283;DHT22;11810;51.178;3.878;2022-12-20T16:36:39;11.00;99.90
23283;DHT22;11810;51.178;3.878;2022-12-20T16:39:05;11.00;99.90
23283;DHT22;11810;51.178;3.878;2022-12-20T16:41:32;11.10;99.90
23283;DHT22;11810;51.178;3.878;2022-12-20T16:44:00;11.20;99.90
23283;DHT22;11810;51.178;3.878;2022-12-20T16:46:29;11.10;99.90
23283;DHT22;11810;51.178;3.878;2022-12-20T16:48:56;11.10;99.90
23283;DHT22;11810;51.178;3.878;2022-12-20T16:53:57;11.10;99.90
23283;DHT22;11810;51.178;3.878;2022-12-20T16:56:23;11.10;99.90
23283;DHT22;11810;51.178;3.878;2022-12-20T16:58:49;11.10;99.90
23283;DHT22;11810;51.178;3.878;2022-12-20T17:01:17;11.20;99.90
23283;DHT22;11810;51.178;3.878;2022-12-20T17:03:46;11.20;99.90
23283;DHT22;11810;51.178;3.878;2022-12-20T17:06:13;11.20;99.90
23283;DHT22;11810;51.178;3.878;2022-12-20T17:08:40;11.10;99.90
23283;DHT22;11810;51.178;3.878;2022-12-20T17:11:26;11.20;99.90
23283;DHT22;11810;51.178;3.878;2022-12-20T17:13:54;11.10;99.90
23283;DHT22;11810;51.178;3.878;2022-12-20T17:16:20;11.10;99.90
23283;DHT22;11810;51.178;3.878;2022-12-20T17:18:48;11.00;99.90
23283;DHT22;11810;51.178;3.878;2022-12-20T17:24:20;10.90;99.90
23283;DHT22;11810;51.178;3.878;2022-12-20T17:26:47;11.00;99.90
23283;DHT22;11810;51.178;3.878;2022-12-20T17:29:12;11.20;99.90
23283;DHT22;11810;51.178;3.878;2022-12-20T17:31:41;11.20;99.90
23283;DHT22;11810;51.178;3.878;2022-12-20T17:36:45;11.10;99.90
23283;DHT22;11810;51.178;3.878;2022-12-20T17:39:11;11.10;99.90
23283;DHT22;11810;51.178;3.878;2022-12-20T17:41:37;11.10;99.90
23283;DHT22;11810;51.178;3.878;2022-12-20T17:44:05;11.10;99.90
23283;DHT22;11810;51.178;3.878;2022-12-20T17:46:31;11.20;99.90
23283;DHT22;11810;51.178;3.878;2022-12-20T17:48:57;11.20;99.90
23283;DHT22;11810;51.178;3.878;2022-12-20T17:51:28;11.10;99.90
23283;DHT22;11810;51.178;3.878;2022-12-20T17:53:57;11.10;99.90
23283;DHT22;11810;51.178;3.878;2022-12-20T17:56:27;11.00;99.90
23283;DHT22;11810;51.178;3.878;2022-12-20T17:58:55;11.10;99.90
23283;DHT22;11810;51.178;3.878;2022-12-20T18:05:21;11.10;99.90
23283;DHT22;11810;51.178;3.878;2022-12-20T18:07:51;11.20;99.90
23283;DHT22;11810;51.178;3.878;2022-12-20T18:10:18;11.10;99.90
23283;DHT22;11810;51.178;3.878;2022-12-20T18:12:44;11.10;99.90
23283;DHT22;11810;51.178;3.878;2022-12-20T18:15:10;11.20;99.90
23283;DHT22;11810;51.178;3.878;2022-12-20T18:17:36;11.20;99.90
23283;DHT22;11810;51.178;3.878;2022-12-20T18:20:04;11.30;99.90
23283;DHT22;11810;51.178;3.878;2022-12-20T18:22:32;11.30;99.90
23283;DHT22;11810;51.178;3.878;2022-12-20T18:24:59;11.20;99.90
23283;DHT22;11810;51.178;3.878;2022-12-20T18:27:24;11.30;99.90
23283;DHT22;11810;51.178;3.878;2022-12-20T18:29:50;11.30;99.90
23283;DHT22;11810;51.178;3.878;2022-12-20T18:32:16;11.40;99.90
23283;DHT22;11810;51.178;3.878;2022-12-20T18:34:42;11.20;99.90